Flight Track Log - Related Links

Times and Time Zones

All times are in EDT time to prevent confusion due to time zone crossing. See the EJA941 flight status page for this flight to view local times or setup timezone preferences in your user account.

Time Position Orientation Groundspeed Altitude Reporting Facility
EDT Latitude Longitude Course Direction KTS MPH feet Rate Location/Type
Fri 03:20:52 PM 42.7331 -73.8844 251° West 251 289 4,000  Level Boston Center
Fri 03:21:52 PM 42.6664 -73.8831 179° South 260 299 8,500 3,650 Climbing Boston Center
Fri 03:22:52 PM 42.5853 -73.8642 170° South 273 314 11,300 1,800 Climbing Boston Center
Fri 03:23:52 PM 42.4917 -73.8508 174° South 346 398 12,100 400 Climbing Boston Center
Fri 03:24:52 PM 42.3689 -73.8311 173° South 398 458 12,100  Level Boston Center
Fri 03:25:52 PM 42.2669 -73.8147 173° South 411 473 12,100  Level Boston Center
Fri 03:26:52 PM 42.1442 -73.8122 179° South 405 466 12,100 -50 Level Boston Center
Fri 03:27:52 PM 42.0439 -73.8156 181° South 400 460 12,000 -50 Descending Boston Center
Fri 03:28:52 PM 41.9211 -73.8183 181° South 405 466 12,000 -350 Level Boston Center
Fri 03:29:52 PM 41.8208 -73.8217 181° South 405 466 11,300 -450 Descending Boston Center
Fri 03:30:52 PM 41.7042 -73.8331 184° South 400 460 11,100 -150 Descending Boston Center
Fri 03:31:52 PM 41.6383 -73.9261 227° Southwest 368 423 11,000 -450 Descending Boston Center
Fri 03:32:52 PM 41.5600 -74.0103 219° Southwest 350 403 10,200 -1,550 Descending Boston Center
Fri 03:33:52 PM 41.4981 -73.9672 152° Southeast 256 295 7,900 -1,817 Descending Boston Center
Fri 03:35:14 PM 41.4167 -73.8667 137° Southeast 274 315 5,900 -1,225 Descending New York TRACON
Fri 03:36:14 PM 41.3500 -73.8000 143° Southeast 273 314 5,000 -950 Descending New York TRACON
Fri 03:37:14 PM 41.2833 -73.7500 151° Southeast 270 311 4,000 -850 Descending New York TRACON
Fri 03:38:14 PM 41.2333 -73.7000 143° Southeast 271 312 3,300 -500 Descending New York TRACON
Fri 03:39:14 PM 41.1667 -73.6500 151° Southeast 260 299 3,000 -450 Descending New York TRACON
Fri 03:40:14 PM 41.1167 -73.6000 143° Southeast 216 249 2,400 -500 Descending New York TRACON
Fri 03:41:14 PM 41.0667 -73.5833 166° South 214 246 2,000 -200 Descending New York TRACON
Fri 03:42:14 PM 41.0000 -73.5833 180° South 216 249 2,000  Level New York TRACON
Fri 03:43:14 PM 40.9667 -73.6167 217° Southwest 206 237 2,000  Level New York TRACON
Fri 03:44:14 PM 41.0000 -73.6500 323° Northwest 167 192 2,000 -474 Level New York TRACON
Fri 03:45:08 PM 41.0333 -73.6833 323° Northwest 118 136 1,100 -1,000 Descending New York TRACON

Login

Don't have an account? Register now (free) for customized features, flight alerts, and more!